Time;durP1;ratioP1;P1;durP2;ratioP2;P2;SDS_P1;SDS_P2;PMS_P1;PMS_P2;Temp;Humidity;BMP_temperature;BMP_pressure;BME280_temperature;BME280_humidity;BME280_pressure;Samples;Min_cycle;Max_cycle;Signal;HPM_P1;HPM_P2
2023/10/22 00:00:07;;;;;;;4.83;2.83;;;;;;;;;;5010282;28;20221;-80
2023/10/22 00:02:41;;;;;;;2.60;2.40;;;;;;;;;;5010244;28;20215;-79
2023/10/22 00:05:07;;;;;;;4.27;2.60;;;;;;;;;;5051042;28;20253;-79
2023/10/22 00:07:35;;;;;;;4.00;2.40;;;;;;;;;;5007521;28;20223;-79
2023/10/22 00:10:01;;;;;;;3.93;2.47;;;;;;;;;;5025551;28;20234;-79
2023/10/22 00:12:27;;;;;;;6.73;2.83;;;;;;;;;;5010609;28;20220;-78
2023/10/22 00:14:55;;;;;;;6.57;2.73;;;;;;;;;;5015142;28;20224;-78
2023/10/22 00:17:20;;;;;;;5.47;2.80;;;;;;;;;;5011724;28;20216;-79
2023/10/22 00:19:46;;;;;;;2.80;2.40;;;;;;;;;;5019499;28;21000;-78
2023/10/22 00:22:13;;;;;;;5.20;2.70;;;;;;;;;;5033241;28;20220;-79
2023/10/22 00:24:40;;;;;;;3.20;2.77;;;;;;;;;;5027387;28;20207;-80
2023/10/22 00:27:06;;;;;;;2.97;2.67;;;;;;;;;;4997768;28;20216;-81
2023/10/22 00:29:32;;;;;;;3.63;2.83;;;;;;;;;;4999836;28;20731;-81
2023/10/22 00:31:57;;;;;;;3.57;2.40;;;;;;;;;;5014589;28;20215;-80
2023/10/22 00:34:23;;;;;;;4.17;2.53;;;;;;;;;;5029827;28;20231;-80
2023/10/22 00:36:48;;;;;;;3.73;2.30;;;;;;;;;;5031746;28;20224;-79
2023/10/22 00:39:16;;;;;;;3.90;2.20;;;;;;;;;;5012614;28;20200;-79
2023/10/22 00:41:41;;;;;;;2.70;2.03;;;;;;;;;;5012253;28;20219;-81
2023/10/22 00:44:11;;;;;;;2.20;1.83;;;;;;;;;;5014452;28;20861;-81
2023/10/22 00:46:37;;;;;;;11.87;2.40;;;;;;;;;;5004934;28;20236;-81
2023/10/22 00:49:08;;;;;;;4.93;2.37;;;;;;;;;;5026977;28;20635;-80
2023/10/22 00:51:40;;;;;;;3.33;1.83;;;;;;;;;;5032504;28;20277;-80
2023/10/22 00:54:05;;;;;;;4.93;2.17;;;;;;;;;;5015744;28;20227;-81
2023/10/22 00:56:31;;;;;;;2.80;1.80;;;;;;;;;;5031426;28;20224;-80
2023/10/22 00:58:56;;;;;;;3.53;1.87;;;;;;;;;;5017384;28;20260;-79
2023/10/22 01:01:25;;;;;;;2.50;1.97;;;;;;;;;;5027618;28;20226;-80
2023/10/22 01:03:53;;;;;;;2.87;1.80;;;;;;;;;;5018908;28;20227;-79
2023/10/22 01:06:21;;;;;;;4.50;2.00;;;;;;;;;;5045697;28;20215;-78
2023/10/22 01:08:46;;;;;;;4.27;1.97;;;;;;;;;;4993405;28;20209;-80
2023/10/22 01:11:12;;;;;;;3.07;1.90;;;;;;;;;;5011915;28;20722;-80
2023/10/22 01:13:42;;;;;;;4.07;1.90;;;;;;;;;;5024201;28;20270;-79
2023/10/22 01:16:10;;;;;;;2.77;1.97;;;;;;;;;;5033956;28;20227;-78
2023/10/22 01:18:36;;;;;;;3.07;1.83;;;;;;;;;;5008757;28;20220;-79
2023/10/22 01:21:04;;;;;;;3.20;1.97;;;;;;;;;;5018347;28;20369;-79
2023/10/22 01:23:56;;;;;;;2.27;1.73;;;;;;;;;;5002824;28;20606;-77
2023/10/22 01:26:22;;;;;;;4.33;1.97;;;;;;;;;;5015844;28;20215;-80
2023/10/22 01:28:47;;;;;;;2.57;1.90;;;;;;;;;;4999694;28;20222;-79
2023/10/22 01:31:16;;;;;;;2.70;2.13;;;;;;;;;;5004982;28;20223;-79
2023/10/22 01:33:42;;;;;;;2.13;1.90;;;;;;;;;;5018573;28;20693;-78
2023/10/22 01:36:07;;;;;;;2.43;1.60;;;;;;;;;;5016774;28;20215;-81
2023/10/22 01:38:33;;;;;;;3.67;2.23;;;;;;;;;;5011631;28;20219;-81
2023/10/22 01:41:03;;;;;;;4.67;2.00;;;;;;;;;;5011885;28;20219;-79
2023/10/22 01:43:31;;;;;;;2.27;1.70;;;;;;;;;;5046111;28;20220;-81
2023/10/22 01:45:59;;;;;;;2.80;1.97;;;;;;;;;;5024186;23;20228;-73
2023/10/22 01:48:27;;;;;;;2.80;2.00;;;;;;;;;;4996810;28;20226;-73
2023/10/22 01:50:53;;;;;;;2.90;1.43;;;;;;;;;;4979607;28;20224;-73
2023/10/22 01:53:20;;;;;;;4.23;1.70;;;;;;;;;;4981083;28;20231;-72
2023/10/22 01:55:46;;;;;;;2.53;1.67;;;;;;;;;;4966705;28;20224;-72
2023/10/22 01:58:11;;;;;;;2.63;1.70;;;;;;;;;;4994551;28;20220;-73
2023/10/22 02:00:37;;;;;;;3.90;2.10;;;;;;;;;;4979068;28;20231;-73
2023/10/22 02:03:04;;;;;;;5.50;1.63;;;;;;;;;;4978624;28;20216;-74
2023/10/22 02:05:33;;;;;;;2.43;1.60;;;;;;;;;;4991325;28;20275;-73
2023/10/22 02:08:00;;;;;;;4.57;1.67;;;;;;;;;;4965082;28;20209;-73
2023/10/22 02:10:33;;;;;;;3.20;1.80;;;;;;;;;;4962909;28;20243;-74
2023/10/22 02:13:01;;;;;;;1.53;1.40;;;;;;;;;;4980563;28;20243;-74
2023/10/22 02:15:30;;;;;;;5.53;1.90;;;;;;;;;;4978473;28;20273;-74
2023/10/22 02:17:55;;;;;;;2.97;1.73;;;;;;;;;;4995624;28;20256;-73
2023/10/22 02:20:21;;;;;;;4.23;1.90;;;;;;;;;;4983021;28;20212;-73
2023/10/22 02:22:47;;;;;;;2.83;1.90;;;;;;;;;;4993442;28;20225;-73
2023/10/22 02:25:12;;;;;;;4.00;1.80;;;;;;;;;;4996550;28;20224;-72
2023/10/22 02:27:38;;;;;;;3.33;1.70;;;;;;;;;;4970947;28;20235;-72
2023/10/22 02:30:07;;;;;;;2.30;1.80;;;;;;;;;;4957817;28;20271;-72
2023/10/22 02:32:35;;;;;;;1.57;1.40;;;;;;;;;;4987919;28;20232;-72
2023/10/22 02:35:00;;;;;;;2.73;1.70;;;;;;;;;;4980659;28;20297;-72
2023/10/22 02:37:30;;;;;;;2.30;1.67;;;;;;;;;;4978151;28;20228;-72
2023/10/22 02:39:57;;;;;;;5.77;1.67;;;;;;;;;;4994374;28;20216;-72
2023/10/22 02:42:26;;;;;;;3.10;1.83;;;;;;;;;;4984933;28;20651;-73
2023/10/22 02:44:51;;;;;;;2.73;1.97;;;;;;;;;;4969167;28;20704;-72
2023/10/22 02:47:19;;;;;;;3.00;1.90;;;;;;;;;;5012288;28;20488;-72
2023/10/22 02:49:47;;;;;;;2.40;1.80;;;;;;;;;;4976737;28;20244;-72
2023/10/22 02:52:17;;;;;;;4.17;2.00;;;;;;;;;;4983642;28;20221;-72
2023/10/22 02:54:43;;;;;;;4.33;1.73;;;;;;;;;;4994516;28;20224;-73
2023/10/22 02:57:14;;;;;;;2.87;1.80;;;;;;;;;;4979346;28;20212;-72
2023/10/22 02:59:44;;;;;;;2.67;1.70;;;;;;;;;;5002662;28;20221;-72
2023/10/22 03:02:12;;;;;;;2.10;1.60;;;;;;;;;;4960015;28;20686;-73
2023/10/22 03:04:42;;;;;;;6.73;1.80;;;;;;;;;;4996095;28;20308;-73
2023/10/22 03:07:08;;;;;;;2.40;1.77;;;;;;;;;;4979599;28;20224;-73
2023/10/22 03:09:36;;;;;;;3.33;1.63;;;;;;;;;;4995764;28;20709;-72
2023/10/22 03:12:01;;;;;;;4.93;1.90;;;;;;;;;;4993544;28;20584;-73
2023/10/22 03:14:27;;;;;;;3.53;1.60;;;;;;;;;;4977416;28;20217;-72
2023/10/22 03:16:57;;;;;;;3.53;1.60;;;;;;;;;;4973617;28;20263;-73
2023/10/22 03:19:25;;;;;;;5.03;1.57;;;;;;;;;;4977786;28;20213;-73
2023/10/22 03:21:52;;;;;;;1.70;1.40;;;;;;;;;;4974632;28;20267;-73
2023/10/22 03:24:18;;;;;;;1.27;1.17;;;;;;;;;;4975556;28;20310;-73
2023/10/22 03:26:44;;;;;;;1.43;1.10;;;;;;;;;;4979721;28;20294;-74
2023/10/22 03:29:14;;;;;;;2.30;1.40;;;;;;;;;;4981841;28;20271;-73
2023/10/22 03:31:43;;;;;;;2.80;1.40;;;;;;;;;;4965150;28;20216;-73
2023/10/22 03:34:11;;;;;;;2.93;1.40;;;;;;;;;;4978143;28;20699;-73
2023/10/22 03:36:40;;;;;;;2.00;1.57;;;;;;;;;;4978827;28;20232;-72
2023/10/22 03:39:13;;;;;;;2.83;1.30;;;;;;;;;;4983616;28;20216;-73
2023/10/22 03:41:41;;;;;;;1.70;1.10;;;;;;;;;;4999359;28;20232;-73
2023/10/22 03:44:06;;;;;;;3.33;1.40;;;;;;;;;;4976850;28;20694;-73
2023/10/22 03:46:34;;;;;;;2.03;1.30;;;;;;;;;;4977384;28;20662;-73
2023/10/22 03:49:04;;;;;;;2.00;1.20;;;;;;;;;;4965939;28;20315;-74
2023/10/22 03:51:32;;;;;;;2.70;1.47;;;;;;;;;;4981909;28;20220;-73
2023/10/22 03:54:00;;;;;;;1.93;1.17;;;;;;;;;;4975353;28;20212;-73
2023/10/22 03:56:26;;;;;;;1.47;1.13;;;;;;;;;;4978815;28;20228;-73
2023/10/22 03:58:54;;;;;;;2.70;1.30;;;;;;;;;;4963507;28;20220;-74
2023/10/22 04:05:13;;;;;;;3.17;1.23;;;;;;;;;;5012212;28;20231;-73
2023/10/22 04:07:39;;;;;;;2.30;1.10;;;;;;;;;;4992512;28;20227;-73
2023/10/22 04:10:09;;;;;;;2.30;1.27;;;;;;;;;;4958643;28;20223;-73
2023/10/22 04:12:38;;;;;;;2.67;1.33;;;;;;;;;;5010943;28;20228;-72
2023/10/22 04:15:06;;;;;;;1.63;1.07;;;;;;;;;;4968351;28;20247;-73
2023/10/22 04:17:34;;;;;;;3.00;1.17;;;;;;;;;;4978595;28;20816;-73
2023/10/22 04:20:03;;;;;;;2.97;1.10;;;;;;;;;;4977586;28;20280;-72
2023/10/22 04:22:28;;;;;;;2.60;1.20;;;;;;;;;;4995422;28;20601;-72
2023/10/22 04:24:56;;;;;;;2.00;1.00;;;;;;;;;;4979069;28;20232;-73
2023/10/22 04:27:24;;;;;;;4.77;1.63;;;;;;;;;;4994353;28;20237;-73
2023/10/22 04:29:52;;;;;;;2.80;1.47;;;;;;;;;;5003991;28;20300;-72
2023/10/22 04:32:25;;;;;;;3.13;1.30;;;;;;;;;;4975990;28;20212;-73
2023/10/22 04:34:53;;;;;;;2.93;1.20;;;;;;;;;;4994451;28;20504;-72
2023/10/22 04:37:20;;;;;;;3.07;1.10;;;;;;;;;;4984383;28;20316;-73
2023/10/22 04:39:47;;;;;;;2.53;1.20;;;;;;;;;;4996387;28;20223;-73
2023/10/22 04:42:16;;;;;;;1.67;1.20;;;;;;;;;;5015348;28;20228;-73
2023/10/22 04:44:46;;;;;;;1.93;1.07;;;;;;;;;;4968877;28;20212;-73
2023/10/22 04:47:14;;;;;;;4.60;1.40;;;;;;;;;;4967216;28;20220;-73
2023/10/22 04:49:39;;;;;;;5.83;1.17;;;;;;;;;;4979398;28;20721;-73
2023/10/22 04:52:10;;;;;;;1.17;1.07;;;;;;;;;;4980650;28;20234;-73
2023/10/22 04:54:39;;;;;;;4.57;1.20;;;;;;;;;;4982912;28;20239;-73
2023/10/22 04:57:04;;;;;;;2.67;1.20;;;;;;;;;;4978759;28;20722;-73
2023/10/22 04:59:32;;;;;;;2.40;1.20;;;;;;;;;;4961336;28;20264;-73
2023/10/22 05:02:02;;;;;;;1.60;1.00;;;;;;;;;;4983470;28;20287;-73
2023/10/22 05:04:32;;;;;;;1.77;1.10;;;;;;;;;;4999800;28;20844;-74
2023/10/22 05:07:05;;;;;;;1.93;1.00;;;;;;;;;;4974957;28;20224;-73
2023/10/22 05:09:32;;;;;;;5.43;1.37;;;;;;;;;;4967424;28;20252;-73
2023/10/22 05:12:00;;;;;;;2.47;1.00;;;;;;;;;;4978481;28;20699;-74
2023/10/22 05:14:26;;;;;;;1.80;1.07;;;;;;;;;;4997853;28;20244;-73
2023/10/22 05:16:57;;;;;;;3.77;1.13;;;;;;;;;;5013327;28;20224;-73
2023/10/22 05:19:22;;;;;;;2.00;1.07;;;;;;;;;;4988068;28;20240;-73
2023/10/22 05:21:50;;;;;;;2.13;0.90;;;;;;;;;;5002265;28;20697;-73
2023/10/22 05:24:16;;;;;;;2.47;1.00;;;;;;;;;;5001319;28;20224;-73
2023/10/22 05:26:44;;;;;;;4.47;1.10;;;;;;;;;;4979329;28;20225;-73
2023/10/22 05:29:13;;;;;;;3.20;0.80;;;;;;;;;;4982696;28;20252;-74
2023/10/22 05:31:42;;;;;;;1.93;0.87;;;;;;;;;;4977672;28;20236;-74
2023/10/22 05:34:08;;;;;;;2.00;0.90;;;;;;;;;;4972912;28;20236;-73
2023/10/22 05:36:37;;;;;;;2.40;0.90;;;;;;;;;;5000972;28;20273;-73
2023/10/22 05:39:02;;;;;;;3.03;1.03;;;;;;;;;;4964314;28;20598;-73
2023/10/22 05:41:28;;;;;;;1.83;0.87;;;;;;;;;;4991523;28;20307;-73
2023/10/22 05:43:59;;;;;;;2.03;0.97;;;;;;;;;;4983498;28;20808;-74
2023/10/22 05:46:30;;;;;;;5.47;1.10;;;;;;;;;;4976764;28;20225;-73
2023/10/22 05:49:00;;;;;;;3.97;1.10;;;;;;;;;;4982998;28;20235;-73
2023/10/22 05:51:28;;;;;;;2.60;1.27;;;;;;;;;;4980205;28;20263;-73
2023/10/22 05:53:56;;;;;;;2.67;1.10;;;;;;;;;;4983364;28;20228;-74
2023/10/22 05:56:26;;;;;;;1.00;0.70;;;;;;;;;;4964128;28;20243;-73
2023/10/22 05:58:51;;;;;;;1.87;1.10;;;;;;;;;;4995374;28;20216;-73
2023/10/22 06:01:22;;;;;;;1.77;1.10;;;;;;;;;;4979866;28;20265;-73
2023/10/22 06:03:50;;;;;;;2.70;1.20;;;;;;;;;;4982049;28;20225;-73
2023/10/22 06:06:21;;;;;;;3.83;1.20;;;;;;;;;;4978748;28;20756;-74
2023/10/22 06:08:47;;;;;;;2.77;1.10;;;;;;;;;;4995435;28;20221;-73
2023/10/22 06:11:13;;;;;;;2.47;1.03;;;;;;;;;;4978561;28;20612;-73
2023/10/22 06:13:46;;;;;;;4.27;1.10;;;;;;;;;;4978784;28;20239;-73
2023/10/22 06:16:13;;;;;;;1.97;1.10;;;;;;;;;;5013010;28;20217;-74
2023/10/22 06:18:39;;;;;;;6.17;1.20;;;;;;;;;;4994900;28;20225;-73
2023/10/22 06:21:16;;;;;;;2.30;1.20;;;;;;;;;;4990225;28;20228;-73
2023/10/22 06:23:44;;;;;;;3.90;1.20;;;;;;;;;;4994720;28;20276;-73
2023/10/22 06:26:13;;;;;;;8.67;1.33;;;;;;;;;;4998761;28;20708;-74
2023/10/22 06:28:43;;;;;;;4.50;1.20;;;;;;;;;;4982093;28;20670;-74
2023/10/22 06:31:15;;;;;;;2.43;1.00;;;;;;;;;;4994155;28;20232;-73
2023/10/22 06:33:40;;;;;;;1.60;1.17;;;;;;;;;;4982771;28;20221;-74
2023/10/22 06:36:13;;;;;;;1.43;0.87;;;;;;;;;;4987543;28;20646;-73
2023/10/22 06:38:38;;;;;;;2.90;1.53;;;;;;;;;;5017527;28;20259;-73
2023/10/22 06:41:05;;;;;;;1.73;1.00;;;;;;;;;;4998783;28;20232;-74
2023/10/22 06:43:30;;;;;;;2.77;1.37;;;;;;;;;;4968152;28;20240;-73
2023/10/22 06:46:01;;;;;;;5.13;1.07;;;;;;;;;;4995250;28;20236;-74
2023/10/22 06:48:32;;;;;;;2.30;1.10;;;;;;;;;;4980036;28;20224;-73
2023/10/22 06:51:02;;;;;;;4.27;1.20;;;;;;;;;;4977267;28;20235;-73
2023/10/22 06:53:30;;;;;;;2.40;1.23;;;;;;;;;;4996523;28;20225;-73
2023/10/22 06:55:58;;;;;;;2.60;1.07;;;;;;;;;;4976889;28;20300;-73
2023/10/22 06:58:23;;;;;;;2.73;1.00;;;;;;;;;;4994598;28;20251;-73
2023/10/22 07:00:49;;;;;;;3.70;1.20;;;;;;;;;;4978124;28;20244;-74
2023/10/22 07:03:19;;;;;;;10.00;1.57;;;;;;;;;;5009358;28;20259;-73
2023/10/22 07:05:47;;;;;;;1.57;0.97;;;;;;;;;;5011783;28;20760;-74
2023/10/22 07:08:16;;;;;;;5.23;1.30;;;;;;;;;;4966176;28;20212;-73
2023/10/22 07:10:44;;;;;;;3.17;1.47;;;;;;;;;;4969383;28;20245;-73
2023/10/22 07:13:09;;;;;;;2.67;1.10;;;;;;;;;;4977890;28;20213;-73
2023/10/22 07:15:37;;;;;;;2.87;1.40;;;;;;;;;;4963596;28;20283;-72
2023/10/22 07:18:07;;;;;;;2.77;1.23;;;;;;;;;;4962517;28;20225;-73
2023/10/22 07:20:35;;;;;;;2.17;1.17;;;;;;;;;;4999650;28;20223;-73
2023/10/22 07:23:01;;;;;;;3.03;1.20;;;;;;;;;;4990786;28;20224;-74
2023/10/22 07:25:27;;;;;;;2.87;1.33;;;;;;;;;;4969199;28;20223;-73
2023/10/22 07:28:03;;;;;;;2.17;0.90;;;;;;;;;;4983075;28;20640;-73
2023/10/22 07:30:31;;;;;;;1.40;0.90;;;;;;;;;;4996802;28;20232;-73
2023/10/22 07:33:01;;;;;;;2.53;1.30;;;;;;;;;;4963363;28;20224;-74
2023/10/22 07:35:29;;;;;;;5.43;1.30;;;;;;;;;;4980914;28;20682;-73
2023/10/22 07:37:55;;;;;;;2.40;1.03;;;;;;;;;;4994468;28;20282;-73
2023/10/22 07:40:20;;;;;;;3.83;1.17;;;;;;;;;;4994688;28;20220;-73
2023/10/22 07:42:46;;;;;;;1.97;1.00;;;;;;;;;;4996915;28;20220;-74
2023/10/22 07:45:16;;;;;;;1.00;0.90;;;;;;;;;;4981717;28;20235;-74
2023/10/22 07:47:42;;;;;;;3.67;0.97;;;;;;;;;;4995716;28;21199;-74
2023/10/22 07:50:07;;;;;;;1.37;0.80;;;;;;;;;;4992806;28;20228;-74
2023/10/22 07:52:34;;;;;;;1.47;0.90;;;;;;;;;;4979151;28;20224;-73
2023/10/22 07:55:00;;;;;;;1.17;0.77;;;;;;;;;;4995547;28;20221;-73
2023/10/22 07:57:28;;;;;;;2.33;0.93;;;;;;;;;;4993033;28;20710;-74
2023/10/22 07:59:56;;;;;;;2.00;1.10;;;;;;;;;;4996551;28;20586;-75
2023/10/22 08:02:23;;;;;;;3.40;1.00;;;;;;;;;;4976083;28;21013;-73
2023/10/22 08:04:51;;;;;;;2.20;1.00;;;;;;;;;;4978767;28;20239;-73
2023/10/22 08:07:18;;;;;;;1.60;0.87;;;;;;;;;;4993335;28;20652;-74
2023/10/22 08:09:47;;;;;;;1.40;0.90;;;;;;;;;;4982214;28;20225;-73
2023/10/22 08:12:13;;;;;;;1.77;1.00;;;;;;;;;;4992814;28;20217;-74
2023/10/22 08:14:43;;;;;;;3.03;1.00;;;;;;;;;;4984386;28;20225;-73
2023/10/22 08:17:12;;;;;;;2.07;0.80;;;;;;;;;;4996030;28;20319;-74
2023/10/22 08:19:42;;;;;;;1.30;0.80;;;;;;;;;;4969496;28;20299;-73
2023/10/22 08:22:10;;;;;;;1.27;0.87;;;;;;;;;;4964145;28;20574;-74
2023/10/22 08:24:38;;;;;;;2.80;0.83;;;;;;;;;;4983026;28;20214;-72
2023/10/22 08:27:04;;;;;;;1.43;0.80;;;;;;;;;;4973511;28;20266;-73
2023/10/22 08:29:32;;;;;;;5.20;1.00;;;;;;;;;;4981920;28;20256;-73
2023/10/22 08:32:05;;;;;;;2.17;1.00;;;;;;;;;;4968696;28;20231;-73
2023/10/22 08:34:32;;;;;;;1.07;0.90;;;;;;;;;;5000739;28;20229;-73
2023/10/22 08:37:00;;;;;;;2.90;1.10;;;;;;;;;;4966327;28;20245;-73
2023/10/22 08:39:28;;;;;;;2.10;0.73;;;;;;;;;;4980717;28;20247;-72
2023/10/22 08:41:59;;;;;;;1.27;0.90;;;;;;;;;;4949163;28;20228;-73
2023/10/22 08:44:27;;;;;;;2.33;0.77;;;;;;;;;;4987251;28;20212;-74
2023/10/22 08:46:55;;;;;;;1.33;0.77;;;;;;;;;;4962531;28;20239;-72
2023/10/22 08:49:21;;;;;;;4.57;1.30;;;;;;;;;;4976548;28;20205;-72
2023/10/22 08:51:47;;;;;;;1.87;0.77;;;;;;;;;;4984035;28;20217;-73
2023/10/22 08:54:16;;;;;;;2.57;1.07;;;;;;;;;;4996703;28;20225;-73
2023/10/22 08:56:42;;;;;;;1.57;0.90;;;;;;;;;;5013753;28;20225;-74
2023/10/22 08:59:12;;;;;;;1.53;0.80;;;;;;;;;;4984106;28;20248;-73
2023/10/22 09:01:38;;;;;;;5.63;1.00;;;;;;;;;;4982144;28;20232;-74
2023/10/22 09:04:04;;;;;;;1.63;0.80;;;;;;;;;;4995950;28;20224;-74
2023/10/22 09:06:29;;;;;;;2.37;0.77;;;;;;;;;;4962362;28;20254;-73
2023/10/22 09:08:57;;;;;;;2.80;0.80;;;;;;;;;;4981158;28;20728;-73
2023/10/22 09:11:25;;;;;;;3.03;0.90;;;;;;;;;;4985127;28;20251;-73
2023/10/22 09:13:52;;;;;;;1.63;0.73;;;;;;;;;;4992485;28;20227;-73
2023/10/22 09:16:27;;;;;;;1.23;1.00;;;;;;;;;;4982951;28;20224;-73
2023/10/22 09:18:55;;;;;;;4.50;0.90;;;;;;;;;;5015980;28;20212;-73
2023/10/22 09:21:23;;;;;;;1.40;0.57;;;;;;;;;;4979120;28;20765;-73
2023/10/22 09:24:09;;;;;;;1.53;0.70;;;;;;;;;;5002143;28;20233;-73
2023/10/22 09:26:48;;;;;;;1.33;0.63;;;;;;;;;;4978781;28;20288;-73
2023/10/22 09:29:16;;;;;;;2.23;0.90;;;;;;;;;;4975461;28;20351;-73
2023/10/22 09:31:54;;;;;;;1.87;0.97;;;;;;;;;;4983920;28;20223;-74
2023/10/22 09:34:40;;;;;;;4.70;1.10;;;;;;;;;;4998086;28;20705;-73
2023/10/22 09:37:08;;;;;;;2.63;0.80;;;;;;;;;;4958349;28;20801;-72
2023/10/22 09:39:42;;;;;;;1.77;0.80;;;;;;;;;;4981558;28;20631;-73
2023/10/22 09:42:09;;;;;;;2.33;1.10;;;;;;;;;;4992459;28;20223;-73
2023/10/22 09:44:34;;;;;;;2.00;0.90;;;;;;;;;;4981210;28;20219;-73
2023/10/22 09:47:01;;;;;;;0.90;0.53;;;;;;;;;;4995523;28;20734;-73
2023/10/22 09:49:38;;;;;;;3.33;2.00;;;;;;;;;;4974476;28;20295;-74
2023/10/22 09:52:04;;;;;;;2.37;2.10;;;;;;;;;;4965772;28;20262;-74
2023/10/22 09:54:39;;;;;;;1.70;1.30;;;;;;;;;;4964001;28;20220;-74
2023/10/22 09:57:09;;;;;;;3.70;1.40;;;;;;;;;;4977746;28;20252;-73
2023/10/22 09:59:37;;;;;;;2.23;0.90;;;;;;;;;;4976576;28;20208;-74
2023/10/22 10:02:08;;;;;;;1.77;0.60;;;;;;;;;;4981332;28;20259;-74
2023/10/22 10:04:37;;;;;;;2.67;1.00;;;;;;;;;;4974578;28;20253;-73
2023/10/22 10:07:05;;;;;;;3.80;0.90;;;;;;;;;;4974376;28;20224;-74
2023/10/22 10:09:33;;;;;;;2.63;1.10;;;;;;;;;;5000852;28;20442;-73
2023/10/22 10:12:06;;;;;;;4.67;0.97;;;;;;;;;;4986357;28;20718;-74
2023/10/22 10:14:48;;;;;;;2.43;0.70;;;;;;;;;;4977951;28;20225;-73
2023/10/22 10:17:17;;;;;;;4.67;1.30;;;;;;;;;;4981016;28;20400;-73
2023/10/22 10:19:47;;;;;;;2.13;1.13;;;;;;;;;;4960080;28;20301;-74
2023/10/22 10:22:40;;;;;;;5.00;1.43;;;;;;;;;;4962904;28;20221;-74
2023/10/22 10:25:30;;;;;;;2.03;1.10;;;;;;;;;;4994323;28;20799;-74
2023/10/22 10:28:05;;;;;;;1.90;1.30;;;;;;;;;;4996307;28;20239;-74
2023/10/22 10:30:33;;;;;;;2.83;2.43;;;;;;;;;;4972120;28;20228;-73
2023/10/22 10:32:59;;;;;;;1.83;1.20;;;;;;;;;;4963307;28;20224;-74
2023/10/22 10:35:27;;;;;;;1.10;0.80;;;;;;;;;;4982007;28;20228;-74
2023/10/22 10:38:13;;;;;;;1.93;0.80;;;;;;;;;;4964860;28;20248;-74
2023/10/22 10:40:42;;;;;;;1.67;0.80;;;;;;;;;;4997380;28;20266;-74
2023/10/22 10:43:10;;;;;;;2.07;1.33;;;;;;;;;;4974302;28;20248;-74
2023/10/22 10:45:41;;;;;;;2.50;1.20;;;;;;;;;;4977619;28;20316;-73
2023/10/22 10:48:42;;;;;;;1.37;0.90;;;;;;;;;;4967156;28;20225;-74
2023/10/22 10:51:19;;;;;;;1.17;0.80;;;;;;;;;;4988569;28;20243;-75
2023/10/22 10:54:12;;;;;;;1.97;0.97;;;;;;;;;;4967855;28;20705;-75
2023/10/22 10:56:49;;;;;;;1.03;0.80;;;;;;;;;;4986408;28;20240;-74
2023/10/22 10:59:31;;;;;;;2.57;1.33;;;;;;;;;;5003757;28;20680;-74
2023/10/22 11:01:57;;;;;;;1.37;1.10;;;;;;;;;;4978042;28;20221;-74
2023/10/22 11:04:23;;;;;;;3.53;1.20;;;;;;;;;;4975055;28;20213;-74
2023/10/22 11:06:54;;;;;;;3.27;1.10;;;;;;;;;;4996997;28;20270;-74
2023/10/22 11:09:26;;;;;;;1.43;0.97;;;;;;;;;;5000029;28;20303;-74
2023/10/22 11:11:55;;;;;;;1.42;1.08;;;;;;;;;;4980821;28;20598;-74
2023/10/22 11:14:26;;;;;;;2.15;1.20;;;;;;;;;;4995112;28;20225;-74
2023/10/22 11:16:56;;;;;;;2.28;1.10;;;;;;;;;;4975418;28;20220;-74
2023/10/22 11:19:31;;;;;;;0.90;0.90;;;;;;;;;;4976143;28;20212;-74
2023/10/22 11:22:01;;;;;;;1.38;1.15;;;;;;;;;;4996823;28;20232;-74
2023/10/22 11:24:35;;;;;;;2.67;1.20;;;;;;;;;;4980673;28;20300;-73
2023/10/22 11:27:04;;;;;;;2.00;1.80;;;;;;;;;;4975385;28;20717;-74
2023/10/22 11:29:41;;;;;;;1.50;1.10;;;;;;;;;;4995367;28;20323;-73
2023/10/22 11:32:18;;;;;;;1.20;0.93;;;;;;;;;;4988367;28;20243;-74
2023/10/22 11:34:58;;;;;;;1.17;1.10;;;;;;;;;;4977187;28;20214;-74
2023/10/22 11:37:31;;;;;;;1.80;1.30;;;;;;;;;;4977446;28;20698;-74
2023/10/22 11:39:57;;;;;;;3.13;1.20;;;;;;;;;;4973205;28;20591;-74
2023/10/22 11:42:31;;;;;;;1.27;1.17;;;;;;;;;;4979864;28;20220;-74
2023/10/22 11:44:58;;;;;;;2.40;1.20;;;;;;;;;;4990417;28;20224;-74
2023/10/22 11:47:30;;;;;;;1.23;0.90;;;;;;;;;;4962512;28;20223;-73
2023/10/22 11:49:59;;;;;;;2.37;0.90;;;;;;;;;;4981643;28;20232;-73
2023/10/22 11:52:40;;;;;;;0.90;0.90;;;;;;;;;;4993707;28;20232;-73
2023/10/22 11:55:07;;;;;;;2.83;0.90;;;;;;;;;;4995237;28;20249;-74
2023/10/22 11:57:38;;;;;;;1.38;1.20;;;;;;;;;;4991049;28;20601;-73
2023/10/22 12:00:06;;;;;;;2.00;1.33;;;;;;;;;;4968363;28;20213;-73
2023/10/22 12:02:36;;;;;;;1.63;1.10;;;;;;;;;;4982452;28;20213;-74
2023/10/22 12:05:07;;;;;;;1.87;1.00;;;;;;;;;;4992441;28;20208;-75
2023/10/22 12:07:32;;;;;;;0.97;0.80;;;;;;;;;;4995577;28;20240;-73
2023/10/22 12:10:06;;;;;;;1.57;0.80;;;;;;;;;;4961555;28;20225;-73
2023/10/22 12:12:34;;;;;;;2.90;1.02;;;;;;;;;;4993981;28;20594;-74
2023/10/22 12:15:04;;;;;;;2.27;0.93;;;;;;;;;;4982964;28;20216;-75
2023/10/22 12:17:30;;;;;;;1.30;1.20;;;;;;;;;;4976661;28;20235;-73
2023/10/22 12:19:56;;;;;;;1.40;1.07;;;;;;;;;;4974082;28;20592;-75
2023/10/22 12:22:28;;;;;;;1.10;1.00;;;;;;;;;;4980730;28;20221;-74
2023/10/22 12:24:57;;;;;;;1.90;1.80;;;;;;;;;;4971898;28;20227;-74
2023/10/22 12:27:22;;;;;;;1.20;0.90;;;;;;;;;;4982250;28;20217;-75
2023/10/22 12:29:52;;;;;;;1.93;1.60;;;;;;;;;;4992812;28;20217;-75
2023/10/22 12:32:25;;;;;;;3.77;2.10;;;;;;;;;;4964468;28;20220;-74
2023/10/22 12:34:51;;;;;;;3.27;3.00;;;;;;;;;;4999162;28;20694;-75
2023/10/22 12:37:16;;;;;;;2.37;1.00;;;;;;;;;;4986496;28;20227;-74
2023/10/22 12:39:42;;;;;;;0.93;0.80;;;;;;;;;;4996214;28;20220;-74
2023/10/22 12:42:12;;;;;;;2.00;0.80;;;;;;;;;;4996449;28;20332;-74
2023/10/22 12:44:54;;;;;;;1.53;0.70;;;;;;;;;;4969685;28;20228;-75
2023/10/22 12:47:25;;;;;;;1.27;0.73;;;;;;;;;;4958782;28;20224;-74
2023/10/22 12:49:50;;;;;;;0.73;0.70;;;;;;;;;;4991480;28;20236;-74
2023/10/22 12:52:20;;;;;;;1.67;0.70;;;;;;;;;;5009268;28;20225;-74
2023/10/22 12:54:46;;;;;;;1.25;0.80;;;;;;;;;;4978058;28;20896;-74
2023/10/22 12:57:11;;;;;;;0.73;0.70;;;;;;;;;;4979693;28;20228;-74
2023/10/22 12:59:37;;;;;;;1.02;0.50;;;;;;;;;;4999896;28;20225;-74
2023/10/22 13:02:03;;;;;;;2.43;0.90;;;;;;;;;;4995437;28;20580;-74
2023/10/22 13:04:29;;;;;;;0.90;0.90;;;;;;;;;;4979759;28;20221;-74
2023/10/22 13:07:00;;;;;;;1.20;1.00;;;;;;;;;;5015014;28;20217;-73
2023/10/22 13:09:28;;;;;;;3.10;1.30;;;;;;;;;;4979081;28;20300;-74
2023/10/22 13:11:59;;;;;;;1.58;0.90;;;;;;;;;;4983576;28;20251;-73
2023/10/22 13:14:26;;;;;;;0.85;0.85;;;;;;;;;;4981491;28;20236;-73
2023/10/22 13:16:54;;;;;;;4.00;1.13;;;;;;;;;;4981145;28;20221;-73
2023/10/22 13:19:23;;;;;;;5.88;1.00;;;;;;;;;;4999762;28;20267;-73
2023/10/22 13:21:52;;;;;;;1.55;0.80;;;;;;;;;;4996557;28;20239;-73
2023/10/22 13:24:20;;;;;;;1.42;0.90;;;;;;;;;;4982179;28;20724;-73
2023/10/22 13:26:46;;;;;;;1.80;0.90;;;;;;;;;;4997538;28;20228;-73
2023/10/22 13:29:12;;;;;;;2.07;0.80;;;;;;;;;;4977213;28;20220;-73
2023/10/22 13:31:40;;;;;;;2.93;0.70;;;;;;;;;;4965745;28;20282;-74
2023/10/22 13:34:08;;;;;;;1.03;0.73;;;;;;;;;;5017736;28;20244;-73
2023/10/22 13:36:34;;;;;;;0.80;0.80;;;;;;;;;;5010798;28;20278;-74
2023/10/22 13:39:02;;;;;;;1.93;1.07;;;;;;;;;;4983393;28;20221;-73
2023/10/22 13:41:32;;;;;;;4.00;1.13;;;;;;;;;;4968022;28;20220;-73
2023/10/22 13:44:04;;;;;;;2.83;0.90;;;;;;;;;;5015126;28;20223;-73
2023/10/22 13:46:32;;;;;;;3.57;1.60;;;;;;;;;;4976818;28;20236;-73
2023/10/22 13:48:57;;;;;;;1.00;1.00;;;;;;;;;;4995864;28;20209;-73
2023/10/22 13:51:27;;;;;;;2.40;1.07;;;;;;;;;;4998905;28;20233;-72
2023/10/22 13:53:55;;;;;;;1.87;1.00;;;;;;;;;;5015589;28;20336;-74
2023/10/22 13:56:27;;;;;;;1.83;1.20;;;;;;;;;;4980393;28;20234;-73
2023/10/22 13:58:53;;;;;;;1.10;0.93;;;;;;;;;;4977521;28;20292;-73
2023/10/22 14:01:19;;;;;;;2.93;2.00;;;;;;;;;;4964052;28;20227;-73
2023/10/22 14:03:47;;;;;;;2.40;2.00;;;;;;;;;;4964352;28;20924;-73
2023/10/22 14:06:15;;;;;;;1.47;1.37;;;;;;;;;;4962793;28;20216;-74
2023/10/22 14:08:43;;;;;;;1.70;1.60;;;;;;;;;;4981141;28;20221;-72
2023/10/22 14:11:11;;;;;;;1.63;1.53;;;;;;;;;;4996822;28;20231;-73
2023/10/22 14:13:37;;;;;;;3.13;2.80;;;;;;;;;;4980712;28;20228;-72
2023/10/22 14:16:05;;;;;;;5.63;3.83;;;;;;;;;;4992384;28;20580;-73
2023/10/22 14:18:32;;;;;;;3.23;2.43;;;;;;;;;;4997828;28;20227;-73
2023/10/22 14:21:10;;;;;;;2.03;1.50;;;;;;;;;;4962573;28;20213;-73
2023/10/22 14:23:41;;;;;;;1.33;1.03;;;;;;;;;;4975087;28;20259;-72
2023/10/22 14:26:09;;;;;;;2.47;1.50;;;;;;;;;;4992472;28;20277;-73
2023/10/22 14:28:37;;;;;;;1.30;1.20;;;;;;;;;;4962862;28;20252;-72
2023/10/22 14:31:06;;;;;;;1.80;1.00;;;;;;;;;;4980852;28;20227;-75
2023/10/22 14:33:36;;;;;;;1.10;0.90;;;;;;;;;;4961447;28;20221;-73
2023/10/22 14:36:03;;;;;;;6.03;4.60;;;;;;;;;;5013108;28;20225;-74
2023/10/22 14:38:29;;;;;;;6.57;5.97;;;;;;;;;;5004649;28;20315;-73
2023/10/22 14:40:57;;;;;;;3.63;3.27;;;;;;;;;;4979113;28;20239;-72
2023/10/22 14:43:22;;;;;;;1.23;1.13;;;;;;;;;;4975773;28;20209;-72
2023/10/22 14:45:50;;;;;;;2.07;1.70;;;;;;;;;;4996503;28;20612;-72
2023/10/22 14:48:21;;;;;;;3.80;2.83;;;;;;;;;;4977792;28;20221;-71
2023/10/22 14:50:53;;;;;;;2.80;2.07;;;;;;;;;;4992337;28;20274;-71
2023/10/22 14:53:21;;;;;;;4.60;2.93;;;;;;;;;;4992476;28;20245;-71
2023/10/22 14:55:56;;;;;;;3.97;2.67;;;;;;;;;;4995772;28;20682;-71